X  Close Metar Aviation Weather Data     EHKD De Kooy Airport
Temperature
61°F Temperature
57°F Dewpoint
88% Humidity



Wind
7 MPH
11 KM/H
3 M/S
6 KTS



300°
WNW
Current Conditions

Mostly Scattered Clouds Mostly Scattered Clouds
Pressure 1012.87 (hPa) - 29.91 (inHg)
Visibility 6 (mile) - 9.7 (km)
Airport
Airport-code EHKD

Location: De Kooy Airport
Distance: 34 (mi)

Metar:
EHKD 220029Z AUTO 30006KT 250V330 9999 SCT013 BKN016 OVC020 16/14 Q1013 WHT

Time: 22-07-2024 02:29 CEST